createdAt,value
2017-04-09T00:00:31.060Z,91.20
2017-04-09T00:01:30.807Z,91.60
2017-04-09T00:02:30.651Z,91.90
2017-04-09T00:03:30.400Z,91.70
2017-04-09T00:04:30.160Z,92.00
2017-04-09T00:05:29.879Z,91.80
2017-04-09T00:06:29.592Z,92.00
2017-04-09T00:07:29.416Z,92.10
2017-04-09T00:08:29.200Z,92.00
2017-04-09T00:09:28.887Z,92.00
2017-04-09T00:10:28.642Z,92.40
2017-04-09T00:11:28.594Z,91.60
2017-04-09T00:12:28.431Z,91.70
2017-04-09T00:13:28.353Z,94.00
2017-04-09T00:14:28.198Z,92.40
2017-04-09T00:15:27.992Z,92.70
2017-04-09T00:16:27.669Z,92.40
2017-04-09T00:17:27.383Z,92.50
2017-04-09T00:18:27.163Z,92.80
2017-04-09T00:19:26.945Z,92.20
2017-04-09T00:20:26.639Z,92.90
2017-04-09T00:21:26.403Z,92.80
2017-04-09T00:22:26.119Z,91.90
2017-04-09T00:23:25.832Z,91.70
2017-04-09T00:24:25.546Z,91.90
2017-04-09T00:25:25.247Z,92.10
2017-04-09T00:26:24.982Z,92.30
2017-04-09T00:27:24.732Z,92.70
2017-04-09T00:28:24.436Z,92.10
2017-04-09T00:29:24.178Z,92.30
2017-04-09T00:30:24.038Z,92.30
2017-04-09T00:31:23.734Z,92.30
2017-04-09T00:32:23.508Z,92.70
2017-04-09T00:33:23.180Z,93.40
2017-04-09T00:34:23.237Z,92.90
2017-04-09T00:35:23.052Z,92.10
2017-04-09T00:36:22.809Z,92.40
2017-04-09T00:37:22.499Z,93.00
2017-04-09T00:38:22.199Z,92.80
2017-04-09T00:39:21.916Z,93.20
2017-04-09T00:40:21.628Z,94.40
2017-04-09T00:41:22.291Z,94.30
2017-04-09T00:42:22.067Z,94.40
2017-04-09T00:43:25.959Z,94.50
2017-04-09T00:44:25.627Z,92.50
2017-04-09T00:45:25.419Z,92.70
2017-04-09T00:46:25.103Z,93.00
2017-04-09T00:47:25.135Z,92.70
2017-04-09T00:48:24.812Z,92.80
2017-04-09T00:49:24.504Z,92.80
2017-04-09T00:50:24.217Z,92.90
2017-04-09T00:51:23.913Z,93.40
2017-04-09T00:52:23.599Z,93.70
2017-04-09T00:53:23.287Z,93.30
2017-04-09T00:54:23.307Z,92.60
2017-04-09T00:55:23.035Z,92.50
2017-04-09T00:56:22.760Z,93.50
2017-04-09T00:57:22.828Z,93.90
2017-04-09T00:58:23.132Z,93.70
2017-04-09T00:59:23.048Z,93.40
2017-04-09T01:00:22.813Z,93.30
2017-04-09T01:01:22.491Z,93.90
2017-04-09T01:02:22.191Z,93.50
2017-04-09T01:03:21.901Z,93.50
2017-04-09T01:04:21.656Z,93.70
2017-04-09T01:05:21.376Z,93.50
2017-04-09T01:06:21.092Z,94.00
2017-04-09T01:07:20.783Z,94.10
2017-04-09T01:08:20.589Z,94.30
2017-04-09T01:09:20.473Z,94.10
2017-04-09T01:10:20.303Z,94.30
2017-04-09T01:11:20.177Z,93.80
2017-04-09T01:12:19.865Z,94.20
2017-04-09T01:13:19.555Z,93.90
2017-04-09T01:14:19.271Z,93.50
2017-04-09T01:15:25.035Z,93.10
2017-04-09T01:16:24.864Z,93.60
2017-04-09T01:17:24.681Z,93.90
2017-04-09T01:18:24.487Z,94.50
2017-04-09T01:19:24.275Z,94.20
2017-04-09T01:20:24.017Z,94.10
2017-04-09T01:21:23.707Z,94.20
2017-04-09T01:22:23.646Z,94.90
2017-04-09T01:23:23.376Z,95.00
2017-04-09T01:24:23.206Z,95.00
2017-04-09T01:25:23.550Z,94.90
2017-04-09T01:26:23.380Z,94.10
2017-04-09T01:27:23.141Z,93.90
2017-04-09T01:28:22.772Z,93.50
2017-04-09T01:29:22.475Z,93.90
2017-04-09T01:30:23.240Z,94.50
2017-04-09T01:31:23.089Z,94.90
2017-04-09T01:32:22.782Z,94.00
2017-04-09T01:33:22.503Z,93.80
2017-04-09T01:34:22.225Z,94.20
2017-04-09T01:35:21.896Z,95.10
2017-04-09T01:36:21.689Z,95.20
2017-04-09T01:37:21.379Z,94.70
2017-04-09T01:38:21.107Z,95.20
2017-04-09T01:39:20.875Z,96.50
2017-04-09T01:40:20.671Z,96.60
2017-04-09T01:41:20.427Z,96.40
2017-04-09T01:42:20.268Z,96.50
2017-04-09T01:43:20.016Z,96.50
2017-04-09T01:44:19.735Z,96.70
2017-04-09T01:45:19.547Z,96.50
2017-04-09T01:46:19.383Z,96.30
2017-04-09T01:47:19.243Z,96.50
2017-04-09T01:49:27.973Z,96.30
2017-04-09T01:50:27.699Z,96.10
2017-04-09T01:51:27.459Z,96.30
2017-04-09T01:52:27.167Z,95.90
2017-04-09T01:53:26.891Z,95.70
2017-04-09T01:54:26.581Z,95.60
2017-04-09T01:55:26.235Z,95.50
2017-04-09T01:56:25.950Z,95.80
2017-04-09T01:57:25.853Z,96.30
2017-04-09T01:58:25.533Z,96.40
2017-04-09T01:59:25.255Z,96.50
2017-04-09T02:00:24.951Z,96.50
2017-04-09T02:01:24.675Z,96.50
2017-04-09T02:02:24.441Z,96.50
2017-04-09T02:03:24.174Z,96.80
2017-04-09T02:04:23.890Z,96.70
2017-04-09T02:05:23.603Z,96.70
2017-04-09T02:06:23.316Z,96.70
2017-04-09T02:07:22.987Z,96.60
2017-04-09T02:08:22.697Z,97.00
2017-04-09T02:09:22.393Z,97.00
2017-04-09T02:10:22.223Z,97.00
2017-04-09T02:11:22.274Z,96.90
2017-04-09T02:12:22.101Z,97.00
2017-04-09T02:13:21.930Z,96.90
2017-04-09T02:14:21.696Z,97.50
2017-04-09T02:15:21.420Z,97.80
2017-04-09T02:16:21.124Z,98.20
2017-04-09T02:17:20.855Z,98.00
2017-04-09T02:18:20.628Z,97.80
2017-04-09T02:19:20.327Z,98.00
2017-04-09T02:20:20.075Z,97.40
2017-04-09T02:21:19.915Z,97.80
2017-04-09T02:22:19.681Z,97.80
2017-04-09T02:23:19.469Z,97.80
2017-04-09T02:24:19.196Z,97.80
2017-04-09T02:25:18.898Z,98.00
2017-04-09T02:26:18.580Z,97.70
2017-04-09T02:27:18.352Z,97.80
2017-04-09T02:28:18.050Z,97.70
2017-04-09T02:29:17.711Z,97.70
2017-04-09T02:30:17.509Z,97.60
2017-04-09T02:31:17.376Z,97.80
2017-04-09T02:32:17.072Z,98.00
2017-04-09T02:33:17.269Z,97.60
2017-04-09T02:34:16.976Z,97.80
2017-04-09T02:35:16.706Z,98.10
2017-04-09T02:36:16.462Z,98.40
2017-04-09T02:37:16.196Z,97.70
2017-04-09T02:38:15.873Z,97.90
2017-04-09T02:39:15.583Z,98.00
2017-04-09T02:40:15.232Z,97.90
2017-04-09T02:41:14.941Z,98.00
2017-04-09T02:42:14.862Z,98.30
2017-04-09T02:43:14.592Z,97.90
2017-04-09T02:44:14.280Z,97.60
2017-04-09T02:45:14.085Z,97.60
2017-04-09T02:46:13.827Z,97.60
2017-04-09T02:47:13.536Z,97.90
2017-04-09T02:48:13.244Z,98.10
2017-04-09T02:49:12.950Z,98.10
2017-04-09T02:50:12.697Z,98.20
2017-04-09T02:51:12.407Z,98.10
2017-04-09T02:52:12.352Z,97.60
2017-04-09T02:53:12.107Z,97.50
2017-04-09T02:54:11.954Z,97.10
2017-04-09T02:55:11.640Z,97.40
2017-04-09T02:56:11.531Z,97.30
2017-04-09T02:57:11.311Z,97.50
2017-04-09T02:58:11.019Z,97.50
2017-04-09T02:59:10.712Z,98.40
2017-04-09T03:00:10.569Z,98.30
2017-04-09T03:01:10.266Z,98.20
2017-04-09T03:02:09.996Z,98.20
2017-04-09T03:03:09.746Z,98.30
2017-04-09T03:04:09.440Z,98.10
2017-04-09T03:05:09.154Z,97.90
2017-04-09T03:06:08.856Z,98.00
2017-04-09T03:07:08.514Z,98.30
2017-04-09T03:08:08.280Z,98.40
2017-04-09T03:09:08.056Z,98.70
2017-04-09T03:10:07.726Z,98.70
2017-04-09T03:11:07.496Z,98.70
2017-04-09T03:12:07.223Z,98.70
2017-04-09T03:13:06.968Z,98.60
2017-04-09T03:14:06.644Z,98.70
2017-04-09T03:15:06.382Z,98.80
2017-04-09T03:16:06.119Z,98.70
2017-04-09T03:17:06.058Z,98.90
2017-04-09T03:18:05.775Z,99.20
2017-04-09T03:19:05.541Z,99.10
2017-04-09T03:20:05.227Z,99.20
2017-04-09T03:21:04.947Z,99.20
2017-04-09T03:22:04.732Z,99.30
2017-04-09T03:23:04.448Z,99.40
2017-04-09T03:24:04.137Z,99.40
2017-04-09T03:25:03.848Z,99.70
2017-04-09T03:26:03.587Z,99.90
2017-04-09T03:27:03.543Z,99.90
2017-04-09T03:28:03.244Z,99.90
2017-04-09T03:29:02.950Z,99.90
2017-04-09T03:30:02.610Z,99.90
2017-04-09T03:31:02.319Z,99.90
2017-04-09T03:32:02.060Z,99.90
2017-04-09T03:33:01.824Z,99.90
2017-04-09T03:34:01.491Z,99.90
2017-04-09T03:35:01.227Z,99.90
2017-04-09T03:36:00.943Z,99.90
2017-04-09T03:37:00.655Z,99.90
2017-04-09T03:38:00.543Z,99.90
2017-04-09T03:39:00.306Z,99.90
2017-04-09T03:40:00.234Z,99.90
2017-04-09T03:41:00.888Z,99.90
2017-04-09T03:42:00.620Z,99.90
2017-04-09T03:43:00.556Z,99.90
2017-04-09T03:44:00.264Z,99.90
2017-04-09T03:44:59.990Z,99.90
2017-04-09T03:46:00.024Z,99.90
2017-04-09T03:46:59.867Z,99.90
2017-04-09T03:47:59.532Z,99.90
2017-04-09T03:48:59.271Z,99.90
2017-04-09T03:49:59.018Z,99.90
2017-04-09T03:50:58.704Z,99.90
2017-04-09T03:51:58.384Z,99.90
2017-04-09T03:52:58.060Z,99.90
2017-04-09T03:53:57.785Z,99.90
2017-04-09T03:54:57.487Z,99.90
2017-04-09T03:55:57.155Z,99.90
2017-04-09T03:56:56.892Z,99.90
2017-04-09T03:57:56.561Z,99.90
2017-04-09T03:58:56.260Z,99.90
2017-04-09T03:59:55.927Z,99.90
2017-04-09T04:00:55.887Z,99.90
2017-04-09T04:01:55.682Z,99.90
2017-04-09T04:02:55.610Z,99.90
2017-04-09T04:03:55.286Z,99.90
2017-04-09T04:04:55.032Z,99.90
2017-04-09T04:05:54.727Z,99.90
2017-04-09T04:06:54.425Z,99.90
2017-04-09T04:07:54.095Z,99.90
2017-04-09T04:08:53.808Z,99.90
2017-04-09T04:09:53.479Z,99.90
2017-04-09T04:10:53.207Z,99.90
2017-04-09T04:11:52.928Z,99.90
2017-04-09T04:12:52.597Z,99.90
2017-04-09T04:13:52.311Z,99.90
2017-04-09T04:14:52.020Z,99.90
2017-04-09T04:15:51.782Z,99.90
2017-04-09T04:16:51.472Z,99.90
2017-04-09T04:17:51.163Z,99.90
2017-04-09T04:18:50.866Z,99.90
2017-04-09T04:19:50.631Z,99.90
2017-04-09T04:20:50.363Z,99.90
2017-04-09T04:21:50.312Z,99.90
2017-04-09T04:22:49.951Z,99.90
2017-04-09T04:23:50.659Z,99.90
2017-04-09T04:24:50.443Z,99.90
2017-04-09T04:25:50.164Z,99.90
2017-04-09T04:26:49.851Z,99.90
2017-04-09T04:27:49.592Z,99.90
2017-04-09T04:28:49.271Z,99.90
2017-04-09T04:29:48.975Z,99.90
2017-04-09T04:30:48.729Z,99.90
2017-04-09T04:31:48.415Z,99.90
2017-04-09T04:32:48.063Z,99.90
2017-04-09T04:33:47.727Z,99.90
2017-04-09T04:34:47.403Z,99.90
2017-04-09T04:35:47.131Z,99.90
2017-04-09T04:36:46.831Z,99.90
2017-04-09T04:37:46.536Z,99.90
2017-04-09T04:38:46.223Z,99.90
2017-04-09T04:39:45.954Z,99.90
2017-04-09T04:40:45.679Z,99.90
2017-04-09T04:41:45.340Z,99.90
2017-04-09T04:42:45.092Z,99.90
2017-04-09T04:43:45.085Z,99.90
2017-04-09T04:44:44.946Z,99.90
2017-04-09T04:45:44.649Z,99.90
2017-04-09T04:46:44.540Z,99.90
2017-04-09T04:47:44.249Z,99.90
2017-04-09T04:48:43.926Z,99.90
2017-04-09T04:49:43.600Z,99.90
2017-04-09T04:50:43.263Z,99.90
2017-04-09T04:51:42.963Z,99.90
2017-04-09T04:52:42.656Z,99.90
2017-04-09T04:53:42.453Z,99.90
2017-04-09T04:54:42.121Z,99.90
2017-04-09T04:55:41.840Z,99.90
2017-04-09T04:56:41.549Z,99.90
2017-04-09T04:57:41.218Z,99.90
2017-04-09T04:58:40.915Z,99.90
2017-04-09T04:59:40.612Z,99.90
2017-04-09T05:00:40.330Z,99.90
2017-04-09T05:01:40.031Z,99.90
2017-04-09T05:02:39.719Z,99.90
2017-04-09T05:03:39.374Z,99.90
2017-04-09T05:04:39.031Z,99.90
2017-04-09T05:05:38.862Z,99.90
2017-04-09T05:06:38.519Z,99.90
2017-04-09T05:07:38.385Z,99.90
2017-04-09T05:08:38.148Z,99.90
2017-04-09T05:09:37.834Z,99.90
2017-04-09T05:10:37.587Z,99.90
2017-04-09T05:11:37.284Z,99.90
2017-04-09T05:12:36.976Z,99.90
2017-04-09T05:13:36.659Z,99.90
2017-04-09T05:14:36.386Z,99.90
2017-04-09T05:15:36.068Z,99.90
2017-04-09T05:16:35.731Z,99.90
2017-04-09T05:17:35.416Z,99.90
2017-04-09T05:18:35.084Z,99.90
2017-04-09T05:19:34.771Z,99.90
2017-04-09T05:20:34.459Z,99.90
2017-04-09T05:21:34.175Z,99.90
2017-04-09T05:22:33.875Z,99.90
2017-04-09T05:23:33.590Z,99.90
2017-04-09T05:24:33.325Z,99.90
2017-04-09T05:25:32.986Z,99.90
2017-04-09T05:26:32.720Z,99.90
2017-04-09T05:27:32.415Z,99.90
2017-04-09T05:28:32.299Z,99.90
2017-04-09T05:29:32.020Z,99.90
2017-04-09T05:30:31.758Z,99.90
2017-04-09T05:31:31.509Z,99.90
2017-04-09T05:32:31.365Z,99.90
2017-04-09T05:33:31.059Z,99.90
2017-04-09T05:34:30.741Z,99.90
2017-04-09T05:35:30.436Z,99.90
2017-04-09T05:36:30.123Z,99.90
2017-04-09T05:37:29.788Z,99.90
2017-04-09T05:38:29.549Z,99.90
2017-04-09T05:39:29.271Z,99.90
2017-04-09T05:40:28.939Z,99.90
2017-04-09T05:41:28.632Z,99.90
2017-04-09T05:42:28.319Z,99.90
2017-04-09T05:43:28.055Z,99.90
2017-04-09T05:44:28.136Z,99.90
2017-04-09T05:45:27.857Z,99.90
2017-04-09T05:46:27.545Z,99.90
2017-04-09T05:47:27.228Z,99.90
2017-04-09T05:48:26.867Z,99.90
2017-04-09T05:49:26.767Z,99.90
2017-04-09T05:50:26.498Z,99.90
2017-04-09T05:51:26.415Z,99.90
2017-04-09T05:52:26.164Z,99.90
2017-04-09T05:53:25.803Z,99.90
2017-04-09T05:54:25.528Z,99.90
2017-04-09T05:55:25.246Z,99.90
2017-04-09T05:56:24.906Z,99.90
2017-04-09T05:57:24.608Z,99.90
2017-04-09T05:58:24.275Z,99.90
2017-04-09T05:59:24.280Z,99.90
2017-04-09T06:00:23.963Z,99.90
2017-04-09T06:01:23.637Z,99.90
2017-04-09T06:02:23.320Z,99.90
2017-04-09T06:03:22.976Z,99.90
2017-04-09T06:04:22.683Z,99.90
2017-04-09T06:05:22.366Z,99.90
2017-04-09T06:06:22.071Z,99.90
2017-04-09T06:07:21.781Z,99.90
2017-04-09T06:08:21.533Z,99.90
2017-04-09T06:09:21.320Z,99.90
2017-04-09T06:10:21.084Z,99.90
2017-04-09T06:11:20.770Z,99.90
2017-04-09T06:12:20.892Z,99.90
2017-04-09T06:13:20.666Z,99.90
2017-04-09T06:14:20.389Z,99.90
2017-04-09T06:15:20.183Z,99.90
2017-04-09T06:16:19.894Z,99.90
2017-04-09T06:17:19.607Z,99.90
2017-04-09T06:18:19.397Z,99.90
2017-04-09T06:19:19.158Z,99.90
2017-04-09T06:20:18.819Z,99.90
2017-04-09T06:21:18.524Z,99.90
2017-04-09T06:22:18.248Z,99.90
2017-04-09T06:23:17.947Z,99.90
2017-04-09T06:24:17.692Z,99.90
2017-04-09T06:25:17.400Z,99.90
2017-04-09T06:26:17.111Z,99.90
2017-04-09T06:27:16.782Z,99.90
2017-04-09T06:28:16.448Z,99.90
2017-04-09T06:29:16.115Z,99.90
2017-04-09T06:30:15.864Z,99.90
2017-04-09T06:31:15.580Z,99.90
2017-04-09T06:32:15.451Z,99.90
2017-04-09T06:33:15.339Z,99.90
2017-04-09T06:34:15.072Z,99.90
2017-04-09T06:35:14.927Z,99.90
2017-04-09T06:36:14.679Z,99.90
2017-04-09T06:37:14.367Z,98.30
2017-04-09T06:38:14.082Z,97.60
2017-04-09T06:39:13.840Z,96.60
2017-04-09T06:40:13.555Z,96.00
2017-04-09T06:41:13.225Z,95.70
2017-04-09T06:42:13.008Z,95.60
2017-04-09T06:43:12.712Z,95.40
2017-04-09T06:44:12.578Z,94.90
2017-04-09T06:45:12.325Z,94.40
2017-04-09T06:46:12.073Z,94.10
2017-04-09T06:47:11.791Z,93.40
2017-04-09T06:48:11.491Z,93.20
2017-04-09T06:49:11.247Z,92.80
2017-04-09T06:50:11.011Z,92.40
2017-04-09T06:51:10.703Z,92.00
2017-04-09T06:52:10.400Z,91.80
2017-04-09T06:53:10.133Z,91.30
2017-04-09T06:54:09.946Z,91.30
2017-04-09T06:55:09.659Z,90.70
2017-04-09T06:56:09.809Z,90.30
2017-04-09T06:57:09.574Z,89.70
2017-04-09T06:58:09.372Z,88.40
2017-04-09T06:59:09.104Z,86.60
2017-04-09T07:00:08.823Z,84.70
2017-04-09T07:01:08.690Z,83.50
2017-04-09T07:02:08.655Z,82.30
2017-04-09T07:03:08.409Z,80.60
2017-04-09T07:04:08.112Z,79.30
2017-04-09T07:05:07.811Z,78.40
2017-04-09T07:06:07.511Z,78.40
2017-04-09T07:07:07.236Z,77.60
2017-04-09T07:08:07.002Z,74.70
2017-04-09T07:09:06.764Z,74.60
2017-04-09T07:10:06.461Z,73.50
2017-04-09T07:11:06.167Z,73.50
2017-04-09T07:12:06.224Z,74.70
2017-04-09T07:13:05.943Z,74.60
2017-04-09T07:14:05.644Z,74.00
2017-04-09T07:15:05.343Z,74.40
2017-04-09T07:16:06.010Z,73.40
2017-04-09T07:17:05.897Z,72.50
2017-04-09T07:18:05.619Z,71.50
2017-04-09T07:19:05.572Z,69.20
2017-04-09T07:20:05.322Z,70.50
2017-04-09T07:21:05.035Z,70.40
2017-04-09T07:22:04.784Z,68.50
2017-04-09T07:23:04.569Z,65.40
2017-04-09T07:24:04.272Z,62.70
2017-04-09T07:25:04.079Z,61.40
2017-04-09T07:26:03.807Z,60.20
2017-04-09T07:27:03.508Z,62.20
2017-04-09T07:28:03.243Z,64.10
2017-04-09T07:29:03.013Z,65.00
2017-04-09T07:30:02.753Z,66.10
2017-04-09T07:31:02.532Z,65.20
2017-04-09T07:32:02.297Z,62.80
2017-04-09T07:33:02.040Z,60.90
2017-04-09T07:34:01.893Z,60.70
2017-04-09T07:35:01.624Z,60.10
2017-04-09T07:36:01.371Z,58.50
2017-04-09T07:37:01.071Z,58.40
2017-04-09T07:38:01.085Z,57.40
2017-04-09T07:39:00.839Z,55.90
2017-04-09T07:40:01.038Z,53.70
2017-04-09T07:41:00.813Z,52.60
2017-04-09T07:42:00.868Z,51.90
2017-04-09T07:43:00.608Z,50.00
2017-04-09T07:44:00.369Z,47.90
2017-04-09T07:45:00.070Z,46.70
2017-04-09T07:45:59.984Z,48.70
2017-04-09T07:46:59.745Z,47.00
2017-04-09T07:47:59.497Z,47.70
2017-04-09T07:48:59.320Z,46.90
2017-04-09T07:49:59.171Z,46.90
2017-04-09T07:50:59.006Z,46.90
2017-04-09T07:51:58.739Z,45.70
2017-04-09T07:52:58.495Z,44.40
2017-04-09T07:53:58.221Z,43.30
2017-04-09T07:54:57.899Z,46.00
2017-04-09T07:55:58.311Z,46.20
2017-04-09T07:56:58.123Z,44.60
2017-04-09T07:57:57.836Z,42.90
2017-04-09T07:58:57.568Z,42.00
2017-04-09T07:59:57.283Z,42.50
2017-04-09T08:00:57.116Z,42.60
2017-04-09T08:01:56.887Z,42.60
2017-04-09T08:02:56.766Z,40.70
2017-04-09T08:03:56.514Z,39.80
2017-04-09T08:04:56.458Z,39.00
2017-04-09T08:05:56.252Z,39.10
2017-04-09T08:06:55.943Z,38.40
2017-04-09T08:07:55.729Z,37.50
2017-04-09T08:08:55.407Z,35.70
2017-04-09T08:09:55.175Z,36.50
2017-04-09T08:10:54.891Z,38.00
2017-04-09T08:11:54.861Z,37.00
2017-04-09T08:12:54.768Z,36.20
2017-04-09T08:13:54.985Z,34.80
2017-04-09T08:14:55.230Z,33.90
2017-04-09T08:15:54.969Z,32.90
2017-04-09T08:16:55.448Z,33.80
2017-04-09T08:17:56.382Z,32.60
2017-04-09T08:18:56.763Z,30.80
2017-04-09T08:19:56.486Z,29.40
2017-04-09T08:20:56.525Z,29.10
2017-04-09T08:21:58.504Z,29.60
2017-04-09T08:22:58.192Z,29.90
2017-04-09T08:23:57.942Z,28.30
2017-04-09T08:24:58.877Z,27.70
2017-04-09T08:25:59.583Z,28.10
2017-04-09T08:26:59.547Z,27.90
2017-04-09T08:28:03.035Z,27.90
2017-04-09T08:29:05.371Z,27.20
2017-04-09T08:30:07.627Z,27.10
2017-04-09T08:31:07.387Z,27.20
2017-04-09T08:32:09.220Z,26.60
2017-04-09T08:33:08.925Z,26.10
2017-04-09T08:34:08.776Z,25.40
2017-04-09T08:35:08.587Z,25.30
2017-04-09T08:36:08.312Z,25.70
2017-04-09T08:37:08.024Z,25.30
2017-04-09T08:38:07.929Z,25.20
2017-04-09T08:39:07.788Z,25.60
2017-04-09T08:40:07.854Z,25.50
2017-04-09T08:41:07.720Z,25.60
2017-04-09T08:42:07.643Z,25.30
2017-04-09T08:43:07.416Z,30.20
2017-04-09T08:44:07.122Z,36.00
2017-04-09T08:45:06.846Z,39.00
2017-04-09T08:46:06.995Z,42.80
2017-04-09T08:47:06.827Z,43.60
2017-04-09T08:48:06.563Z,44.30
2017-04-09T08:49:06.240Z,43.20
2017-04-09T08:50:06.021Z,41.60
2017-04-09T08:51:05.765Z,44.40
2017-04-09T08:52:06.358Z,43.30
2017-04-09T08:53:07.829Z,46.80
2017-04-09T08:54:07.487Z,44.20
2017-04-09T08:55:07.419Z,44.80
2017-04-09T08:56:07.183Z,43.50
2017-04-09T08:57:07.384Z,43.20
2017-04-09T08:58:08.474Z,42.50
2017-04-09T08:59:08.148Z,41.80
2017-04-09T09:00:08.379Z,39.20
2017-04-09T09:01:08.064Z,37.20
2017-04-09T09:02:07.787Z,39.90
2017-04-09T09:03:07.549Z,39.10
2017-04-09T09:04:07.853Z,39.50
2017-04-09T09:05:07.674Z,39.20
2017-04-09T09:06:07.703Z,37.60
2017-04-09T09:07:07.480Z,38.00
2017-04-09T09:08:07.272Z,38.90
2017-04-09T09:09:07.623Z,38.80
2017-04-09T09:10:07.371Z,38.00
2017-04-09T09:11:07.675Z,39.50
2017-04-09T09:12:07.368Z,41.00
2017-04-09T09:13:07.902Z,40.80
2017-04-09T09:14:07.628Z,40.10
2017-04-09T09:15:07.891Z,41.80
2017-04-09T09:16:07.593Z,41.40
2017-04-09T09:17:07.324Z,40.30
2017-04-09T09:18:07.740Z,41.10
2017-04-09T09:19:07.466Z,40.80
2017-04-09T09:20:07.545Z,42.10
2017-04-09T09:21:07.313Z,42.50
2017-04-09T09:22:07.136Z,43.30
2017-04-09T09:23:06.940Z,41.80
2017-04-09T09:24:06.719Z,43.00
2017-04-09T09:25:06.494Z,42.10
2017-04-09T09:26:06.236Z,42.00
2017-04-09T09:27:05.960Z,43.00
2017-04-09T09:28:05.680Z,41.60
2017-04-09T09:29:05.412Z,42.30
2017-04-09T09:30:05.184Z,41.50
2017-04-09T09:31:04.931Z,41.00
2017-04-09T09:32:05.715Z,41.80
2017-04-09T09:33:05.729Z,42.10
2017-04-09T09:34:05.424Z,39.50
2017-04-09T09:35:05.147Z,40.20
2017-04-09T09:36:04.930Z,40.50
2017-04-09T09:37:04.737Z,40.00
2017-04-09T09:38:04.468Z,42.60
2017-04-09T09:39:04.458Z,41.20
2017-04-09T09:40:04.194Z,42.60
2017-04-09T09:41:04.037Z,38.80
2017-04-09T09:42:03.778Z,41.80
2017-04-09T09:43:03.673Z,40.70
2017-04-09T09:44:03.490Z,40.80
2017-04-09T09:45:03.277Z,39.10
2017-04-09T09:46:03.064Z,38.90
2017-04-09T09:47:02.755Z,38.40
2017-04-09T09:48:02.546Z,38.60
2017-04-09T09:49:02.337Z,39.20
2017-04-09T09:50:02.065Z,38.20
2017-04-09T09:51:01.888Z,36.60
2017-04-09T09:52:01.683Z,36.10
2017-04-09T09:53:01.417Z,36.50
2017-04-09T09:54:01.186Z,39.30
2017-04-09T09:55:00.979Z,36.80
2017-04-09T09:56:00.733Z,33.00
2017-04-09T09:57:00.555Z,32.10
2017-04-09T09:58:00.629Z,31.20
2017-04-09T09:59:01.203Z,30.60
2017-04-09T10:00:00.957Z,30.30
2017-04-09T10:01:00.666Z,31.30
2017-04-09T10:02:00.482Z,30.50
2017-04-09T10:03:00.263Z,31.20
2017-04-09T10:04:00.248Z,31.60
2017-04-09T10:05:00.014Z,31.40
2017-04-09T10:06:00.095Z,31.10
2017-04-09T10:06:59.914Z,29.60
2017-04-09T10:07:59.673Z,31.30
2017-04-09T10:08:59.430Z,32.30
2017-04-09T10:09:59.190Z,31.00
2017-04-09T10:10:58.938Z,30.80
2017-04-09T10:11:58.700Z,30.00
2017-04-09T10:12:58.514Z,29.50
2017-04-09T10:13:59.217Z,28.90
2017-04-09T10:15:00.845Z,28.90
2017-04-09T10:16:00.709Z,28.90
2017-04-09T10:17:00.539Z,29.60
2017-04-09T10:18:00.959Z,32.10
2017-04-09T10:19:00.762Z,30.60
2017-04-09T10:20:00.536Z,32.30
2017-04-09T10:21:00.231Z,32.80
2017-04-09T10:21:59.919Z,31.20
2017-04-09T10:22:59.651Z,30.70
2017-04-09T10:24:00.130Z,32.20
2017-04-09T10:24:59.890Z,32.20
2017-04-09T10:25:59.654Z,31.10
2017-04-09T10:26:59.471Z,33.50
2017-04-09T10:27:59.256Z,33.80
2017-04-09T10:28:59.301Z,35.30
2017-04-09T10:29:59.075Z,38.40
2017-04-09T10:30:59.107Z,39.40
2017-04-09T10:31:58.911Z,39.70
2017-04-09T10:32:58.740Z,39.60
2017-04-09T10:33:58.579Z,38.20
2017-04-09T10:35:01.639Z,38.60
2017-04-09T10:36:02.288Z,38.10
2017-04-09T10:37:02.188Z,34.80
2017-04-09T10:38:01.976Z,36.40
2017-04-09T10:39:01.760Z,37.40
2017-04-09T10:40:01.619Z,36.90
2017-04-09T10:41:01.573Z,36.50
2017-04-09T10:42:01.301Z,37.10
2017-04-09T10:43:01.026Z,38.80
2017-04-09T10:44:00.745Z,37.20
2017-04-09T10:45:00.556Z,37.80
2017-04-09T10:46:00.341Z,38.40
2017-04-09T10:47:00.129Z,38.40
2017-04-09T10:48:00.036Z,39.00
2017-04-09T10:49:00.140Z,36.80
2017-04-09T10:49:59.942Z,36.50
2017-04-09T10:50:59.715Z,36.60
2017-04-09T10:51:59.745Z,37.50
2017-04-09T10:52:59.649Z,36.30
2017-04-09T10:53:59.648Z,37.40
2017-04-09T10:54:59.602Z,37.70
2017-04-09T10:55:59.530Z,36.10
2017-04-09T10:56:59.351Z,37.40
2017-04-09T10:57:59.128Z,37.20
2017-04-09T10:58:58.895Z,34.80
2017-04-09T10:59:58.695Z,35.70
2017-04-09T11:00:58.517Z,35.60
2017-04-09T11:01:58.684Z,36.10
2017-04-09T11:02:58.486Z,37.40
2017-04-09T11:03:58.256Z,36.80
2017-04-09T11:05:12.784Z,35.70
2017-04-09T11:06:12.535Z,34.50
2017-04-09T11:07:12.371Z,34.40
2017-04-09T11:08:12.149Z,33.30
2017-04-09T11:09:12.306Z,33.00
2017-04-09T11:10:12.085Z,32.80
2017-04-09T11:11:11.873Z,32.60
2017-04-09T11:12:11.736Z,31.50
2017-04-09T11:13:12.559Z,32.30
2017-04-09T11:14:12.377Z,31.50
2017-04-09T11:15:16.911Z,30.60
2017-04-09T11:16:16.838Z,31.30
2017-04-09T11:17:17.384Z,30.40
2017-04-09T11:18:17.631Z,30.90
2017-04-09T11:19:17.527Z,31.30
2017-04-09T11:20:19.438Z,33.70
2017-04-09T11:21:21.292Z,35.00
2017-04-09T11:22:25.159Z,34.40
2017-04-09T11:23:25.816Z,33.40
2017-04-09T11:24:25.934Z,33.10
2017-04-09T11:25:26.662Z,33.00
2017-04-09T11:26:27.769Z,34.40
2017-04-09T11:27:27.928Z,35.10
2017-04-09T11:28:29.035Z,34.10
2017-04-09T11:29:31.332Z,34.10
2017-04-09T11:30:31.175Z,33.30
2017-04-09T11:31:32.891Z,33.30
2017-04-09T11:32:32.761Z,34.50
2017-04-09T11:33:33.419Z,36.30
2017-04-09T11:34:33.997Z,33.90
2017-04-09T11:35:33.963Z,32.60
2017-04-09T11:36:33.992Z,33.90
2017-04-09T11:37:33.732Z,31.70
2017-04-09T11:38:34.683Z,36.60
2017-04-09T11:39:34.528Z,37.80
2017-04-09T11:40:38.595Z,34.90
2017-04-09T11:41:38.606Z,32.90
2017-04-09T11:42:38.399Z,33.80
2017-04-09T11:43:38.144Z,34.70
2017-04-09T11:44:38.011Z,31.10
2017-04-09T11:45:37.951Z,30.50
2017-04-09T11:46:37.692Z,29.00
2017-04-09T11:47:37.447Z,29.50
2017-04-09T11:48:37.699Z,28.90
2017-04-09T11:49:37.475Z,28.00
2017-04-09T11:50:37.221Z,29.30
2017-04-09T11:51:37.020Z,30.10
2017-04-09T11:52:37.217Z,31.00
2017-04-09T11:53:37.100Z,31.80
2017-04-09T11:54:36.975Z,33.10
2017-04-09T11:55:37.588Z,31.20
2017-04-09T11:56:37.796Z,29.70
2017-04-09T11:57:37.579Z,29.80
2017-04-09T11:58:37.863Z,30.30
2017-04-09T11:59:37.743Z,30.20
2017-04-09T12:00:37.495Z,31.10
2017-04-09T12:01:37.398Z,30.90
2017-04-09T12:02:37.236Z,30.60
2017-04-09T12:03:37.101Z,30.30
2017-04-09T12:04:36.826Z,29.60
2017-04-09T12:05:36.618Z,31.00
2017-04-09T12:06:36.857Z,31.60
2017-04-09T12:07:36.690Z,29.90
2017-04-09T12:08:36.659Z,31.70
2017-04-09T12:09:36.464Z,32.10
2017-04-09T12:10:36.293Z,31.00
2017-04-09T12:11:36.104Z,30.70
2017-04-09T12:12:35.884Z,30.60
2017-04-09T12:13:36.254Z,32.20
2017-04-09T12:14:36.084Z,32.40
2017-04-09T12:15:35.822Z,32.60
2017-04-09T12:16:35.571Z,31.50
2017-04-09T12:17:35.380Z,31.20
2017-04-09T12:18:35.203Z,30.60
2017-04-09T12:19:35.349Z,31.90
2017-04-09T12:20:35.237Z,30.90
2017-04-09T12:21:35.174Z,29.70
2017-04-09T12:22:35.351Z,31.30
2017-04-09T12:23:35.156Z,30.00
2017-04-09T12:24:36.514Z,30.30
2017-04-09T12:25:36.274Z,30.50
2017-04-09T12:26:37.053Z,29.80
2017-04-09T12:27:37.319Z,31.50
2017-04-09T12:28:37.123Z,31.20
2017-04-09T12:29:37.008Z,30.00
2017-04-09T12:30:37.001Z,29.80
2017-04-09T12:31:36.744Z,31.10
2017-04-09T12:32:36.536Z,30.20
2017-04-09T12:33:37.027Z,31.40
2017-04-09T12:34:36.805Z,30.10
2017-04-09T12:35:36.608Z,30.60
2017-04-09T12:36:37.110Z,29.60
2017-04-09T12:37:37.123Z,32.00
2017-04-09T12:38:37.086Z,32.00
2017-04-09T12:39:36.855Z,30.70
2017-04-09T12:40:36.734Z,31.40
2017-04-09T12:41:36.634Z,31.10
2017-04-09T12:42:36.671Z,32.10
2017-04-09T12:43:36.542Z,32.30
2017-04-09T12:44:36.772Z,29.70
2017-04-09T12:45:37.506Z,30.90
2017-04-09T12:46:38.006Z,30.10
2017-04-09T12:47:37.859Z,31.10
2017-04-09T12:48:37.910Z,30.40
2017-04-09T12:49:38.233Z,31.70
2017-04-09T12:50:38.240Z,30.00
2017-04-09T12:51:38.175Z,29.60
2017-04-09T12:52:37.963Z,29.00